TNCB/BON METAR and TAF weather

Enter ICAO airport designator
Station Type Date Time Source
TNCB METAR 2019/12/10 05:55 UTC NOAA

TNCB 100555Z AUTO 08014KT 9999 FEW023/// 27/23 Q1012


Station Type Date Time Source
TNCB Decoded METAR 2019/12/10 05:55 UTC NOAA

Flamingo Airport, Bonaire, Netherlands Antilles (TNCB) 12-09N 068-17W 7M
Dec 10, 2019 - 12:55 AM EST / 2019.12.10 0555 UTC
Wind: from the E (080 degrees) at 16 MPH (14 KT):0
Visibility: greater than 7 mile(s):0
Sky conditions: mostly clear
Temperature: 80 F (27 C)
Dew Point: 73 F (23 C)
Relative Humidity: 78%
Pressure (altimeter): 29.88 in. Hg (1012 hPa)
ob: TNCB 100555Z AUTO 08014KT 9999 FEW023/// 27/23 Q1012
cycle: 6

Station Type Date Time Source
TNCB TAF 2019/12/10 06:27 UTC NOAA

TAF TAF TNCB 100512Z 1006/1112 08012KT 9999 SCT025 PROB40
TEMPO 1009/1012 09015G25KT 6000 SHRA SCT020CB PROB40
TEMPO 1106/1112 09015G25KT 6000 SHRA SCT020CB

Example: see airport list